Time;durP1;ratioP1;P1;durP2;ratioP2;P2;SDS_P1;SDS_P2;PMS_P1;PMS_P2;Temp;Humidity;BMP_temperature;BMP_pressure;BME280_temperature;BME280_humidity;BME280_pressure;Samples;Min_cycle;Max_cycle;Signal;HPM_P1;HPM_P2
2022/04/06 00:00:09;;;;;;;21.05;8.70;;;;;;;6.85;100.00;95623.94;4996241;28;20436;-70
2022/04/06 00:02:37;;;;;;;18.25;9.48;;;;;;;6.78;100.00;95619.84;4999212;28;20468;-70
2022/04/06 00:05:04;;;;;;;24.33;10.77;;;;;;;6.73;100.00;95614.44;4999040;28;20420;-69
2022/04/06 00:07:30;;;;;;;17.65;8.45;;;;;;;6.57;100.00;95606.22;4998855;28;20044;-70
2022/04/06 00:09:55;;;;;;;19.90;8.52;;;;;;;6.51;100.00;95617.03;4998436;28;20038;-71
2022/04/06 00:12:21;;;;;;;22.77;10.35;;;;;;;6.56;100.00;95619.78;4997240;28;20590;-72
2022/04/06 00:14:46;;;;;;;16.42;8.25;;;;;;;6.64;100.00;95614.03;4998125;28;20140;-71
2022/04/06 00:17:13;;;;;;;18.77;9.05;;;;;;;6.66;100.00;95612.75;4987047;28;20042;-70
2022/04/06 00:19:39;;;;;;;20.05;8.73;;;;;;;6.70;100.00;95611.22;4999878;28;20314;-69
2022/04/06 00:22:05;;;;;;;21.75;9.73;;;;;;;6.74;100.00;95608.84;5003262;28;20496;-70
2022/04/06 00:24:31;;;;;;;23.48;10.93;;;;;;;6.74;100.00;95597.41;4998206;28;20050;-69
2022/04/06 00:26:57;;;;;;;22.52;8.68;;;;;;;6.76;100.00;95595.31;4997758;28;20049;-72
2022/04/06 00:29:23;;;;;;;25.63;11.27;;;;;;;6.76;100.00;95598.78;4997314;28;20049;-71
2022/04/06 00:31:49;;;;;;;20.85;8.80;;;;;;;6.76;100.00;95598.78;4999620;28;20057;-69
2022/04/06 00:34:14;;;;;;;27.05;10.05;;;;;;;6.76;100.00;95601.44;4999913;28;20472;-70
2022/04/06 00:36:40;;;;;;;23.08;8.98;;;;;;;6.77;100.00;95600.41;4999511;28;20609;-69
2022/04/06 00:39:05;;;;;;;25.98;9.80;;;;;;;6.79;100.00;95595.66;5001311;28;20029;-71
2022/04/06 00:41:31;;;;;;;29.77;10.90;;;;;;;6.78;100.00;95590.59;5000832;28;20034;-70
2022/04/06 00:44:14;;;;;;;23.15;9.23;;;;;;;6.77;100.00;95597.75;4998262;28;20096;-71
2022/04/06 00:46:44;;;;;;;21.25;9.30;;;;;;;6.80;100.00;95596.44;5001026;28;20053;-70
2022/04/06 00:49:14;;;;;;;22.23;9.60;;;;;;;6.77;100.00;95603.06;4999963;28;20050;-71
2022/04/06 00:51:47;;;;;;;23.42;9.85;;;;;;;6.78;100.00;95594.03;4999745;28;20049;-70
2022/04/06 00:54:18;;;;;;;22.73;8.68;;;;;;;6.74;100.00;95600.88;4997025;28;20049;-69
2022/04/06 00:56:45;;;;;;;;;;;;;;;6.71;100.00;95588.09;5000292;28;20121;-71
2022/04/06 00:59:11;;;;;;;23.00;9.10;;;;;;;6.68;100.00;95584.03;4996200;28;19921;-72
2022/04/06 01:01:37;;;;;;;27.65;9.50;;;;;;;6.67;100.00;95589.63;4997590;28;20491;-71
2022/04/06 01:04:03;;;;;;;22.92;9.15;;;;;;;6.63;100.00;95577.88;4998924;28;20057;-70
2022/04/06 01:06:29;;;;;;;17.95;8.95;;;;;;;6.57;100.00;95573.53;5001743;28;20044;-69
2022/04/06 01:08:55;;;;;;;26.55;9.40;;;;;;;6.55;100.00;95584.41;4996915;28;20438;-70
2022/04/06 01:11:21;;;;;;;21.83;8.93;;;;;;;6.48;100.00;95588.28;4999366;28;20046;-70
2022/04/06 01:13:47;;;;;;;30.80;9.88;;;;;;;6.43;100.00;95576.53;4997348;28;20069;-70
2022/04/06 01:16:13;;;;;;;21.10;9.13;;;;;;;6.36;100.00;95589.16;5000006;28;20508;-70
2022/04/06 01:18:41;;;;;;;25.38;8.00;;;;;;;6.29;100.00;95577.91;5000802;28;20041;-71
2022/04/06 01:21:07;;;;;;;25.20;8.68;;;;;;;6.25;100.00;95571.47;4999629;28;20104;-69
2022/04/06 01:23:33;;;;;;;17.85;7.18;;;;;;;6.23;100.00;95570.91;4999291;28;20068;-70
2022/04/06 01:25:59;;;;;;;22.10;8.27;;;;;;;6.24;100.00;95571.72;4999032;28;20485;-69
2022/04/06 01:28:26;;;;;;;24.17;8.63;;;;;;;6.24;100.00;95572.53;4996779;28;20456;-71
2022/04/06 01:30:51;;;;;;;28.05;8.77;;;;;;;6.22;100.00;95573.78;4998227;28;20567;-69
2022/04/06 01:33:17;;;;;;;23.85;8.27;;;;;;;6.21;100.00;95561.56;4995485;28;20038;-70
2022/04/06 01:35:42;;;;;;;23.88;8.95;;;;;;;6.17;100.00;95566.56;4997753;28;20046;-70
2022/04/06 01:38:08;;;;;;;22.95;8.90;;;;;;;6.16;100.00;95561.50;4996005;28;20108;-70
2022/04/06 01:40:34;;;;;;;21.52;8.48;;;;;;;6.24;100.00;95566.41;4998678;28;20243;-71
2022/04/06 01:43:00;;;;;;;23.05;9.45;;;;;;;6.26;100.00;95569.63;4996516;28;20044;-69
2022/04/06 01:45:25;;;;;;;24.33;8.82;;;;;;;6.22;100.00;95568.47;4996916;28;20038;-71
2022/04/06 01:47:51;;;;;;;22.05;8.60;;;;;;;6.20;100.00;95554.63;4998987;28;20366;-71
2022/04/06 01:53:02;;;;;;;18.17;6.47;;;;;;;6.23;100.00;95548.84;4999244;28;20033;-71
2022/04/06 01:55:28;;;;;;;24.77;8.55;;;;;;;6.20;100.00;95555.44;4998895;28;20033;-71
2022/04/06 01:57:53;;;;;;;23.85;8.23;;;;;;;6.20;100.00;95547.47;4999362;28;20556;-69
2022/04/06 02:00:22;;;;;;;22.20;8.30;;;;;;;6.20;100.00;95544.81;4998058;28;20064;-70
2022/04/06 02:02:51;;;;;;;14.40;6.20;;;;;;;6.14;100.00;95540.47;4988612;28;20359;-70
2022/04/06 02:05:17;;;;;;;25.08;9.13;;;;;;;6.19;100.00;95532.59;4997615;28;20034;-70
2022/04/06 02:07:44;;;;;;;18.65;7.43;;;;;;;6.23;100.00;95539.03;4997937;28;20042;-71
2022/04/06 02:10:10;;;;;;;27.23;9.35;;;;;;;6.23;100.00;95530.25;4998089;28;20060;-72
2022/04/06 02:12:38;;;;;;;19.58;7.32;;;;;;;6.13;100.00;95529.03;5000014;28;20038;-70
2022/04/06 02:15:03;;;;;;;20.13;7.72;;;;;;;6.14;100.00;95532.50;4997309;28;20037;-70
2022/04/06 02:17:29;;;;;;;18.33;7.45;;;;;;;6.15;100.00;95523.50;4998389;28;20040;-70
2022/04/06 02:19:56;;;;;;;20.33;6.75;;;;;;;6.16;100.00;95532.28;4998602;28;20037;-70
2022/04/06 02:22:22;;;;;;;18.92;5.88;;;;;;;6.12;100.00;95526.63;4999722;28;20041;-70
2022/04/06 02:24:48;;;;;;;16.83;6.75;;;;;;;6.12;100.00;95524.78;4999345;28;20369;-70
2022/04/06 02:27:14;;;;;;;19.65;6.75;;;;;;;6.12;100.00;95519.47;4997448;28;20327;-69
2022/04/06 02:29:40;;;;;;;18.45;5.13;;;;;;;6.10;100.00;95526.88;4996154;28;20053;-71
2022/04/06 02:32:07;;;;;;;19.38;6.93;;;;;;;6.11;100.00;95515.19;4996400;28;20148;-71
2022/04/06 02:34:33;;;;;;;16.95;6.22;;;;;;;6.10;100.00;95521.56;4998183;28;21478;-70
2022/04/06 02:37:02;;;;;;;18.80;5.10;;;;;;;6.08;100.00;95515.69;4998254;28;20042;-70
2022/04/06 02:39:27;;;;;;;13.18;4.07;;;;;;;6.03;100.00;95507.66;4997187;28;20185;-70
2022/04/06 02:41:53;;;;;;;13.77;4.80;;;;;;;6.06;100.00;95516.97;4996876;28;20544;-70
2022/04/06 02:44:19;;;;;;;22.25;7.63;;;;;;;6.08;100.00;95506.94;4996275;28;20412;-72
2022/04/06 02:46:45;;;;;;;18.77;6.43;;;;;;;6.03;100.00;95507.66;4982911;28;20037;-70
2022/04/06 02:49:11;;;;;;;24.75;5.88;;;;;;;6.02;100.00;95502.59;4997759;28;20490;-69
2022/04/06 02:51:37;;;;;;;18.67;5.93;;;;;;;6.02;100.00;95507.91;4998948;28;20053;-71
2022/04/06 02:54:02;;;;;;;18.67;5.18;;;;;;;6.01;100.00;95506.28;4995943;28;20536;-70
2022/04/06 02:56:28;;;;;;;15.23;5.20;;;;;;;5.97;100.00;95505.16;4998053;28;20619;-70
2022/04/06 02:58:56;;;;;;;21.38;5.60;;;;;;;5.92;100.00;95513.88;4981305;28;20066;-70
2022/04/06 03:01:22;;;;;;;15.65;5.88;;;;;;;5.90;100.00;95502.63;4994683;28;20132;-71
2022/04/06 03:03:47;;;;;;;23.98;6.47;;;;;;;5.88;100.00;95507.38;4996685;28;20152;-70
2022/04/06 03:06:13;;;;;;;17.77;6.13;;;;;;;5.85;100.00;95503.38;4998462;28;20068;-69
2022/04/06 03:08:38;;;;;;;14.73;4.45;;;;;;;5.87;100.00;95517.19;4997230;28;20404;-70
2022/04/06 03:11:03;;;;;;;16.45;4.60;;;;;;;5.87;100.00;95503.13;4995973;28;20021;-69
2022/04/06 03:13:29;;;;;;;18.05;4.88;;;;;;;5.86;100.00;95504.16;4985802;28;20034;-71
2022/04/06 03:15:55;;;;;;;21.88;5.40;;;;;;;5.81;100.00;95499.56;4996734;28;20136;-72
2022/04/06 03:18:21;;;;;;;16.70;5.03;;;;;;;5.81;100.00;95504.88;4980273;28;20690;-70
2022/04/06 03:20:47;;;;;;;15.38;5.93;;;;;;;5.72;100.00;95497.56;4998773;28;20040;-72
2022/04/06 03:23:14;;;;;;;19.98;5.00;;;;;;;5.79;100.00;95495.56;4996249;28;20034;-70
2022/04/06 03:25:39;;;;;;;16.13;4.68;;;;;;;5.78;100.00;95494.75;4997920;28;20091;-69
2022/04/06 03:28:05;;;;;;;20.92;5.22;;;;;;;5.77;100.00;95487.84;4981397;28;20053;-69
2022/04/06 03:30:30;;;;;;;14.00;5.30;;;;;;;5.78;100.00;95494.75;4997329;28;20053;-70
2022/04/06 03:32:56;;;;;;;16.50;5.18;;;;;;;5.68;100.00;95497.25;4996990;28;20428;-71
2022/04/06 03:35:21;;;;;;;15.07;4.78;;;;;;;5.69;100.00;95482.94;4996856;28;20417;-70
2022/04/06 03:37:47;;;;;;;12.13;3.80;;;;;;;5.67;100.00;95476.22;4995913;28;20053;-70
2022/04/06 03:40:13;;;;;;;13.57;4.35;;;;;;;5.64;100.00;95485.50;4994842;28;20142;-71
2022/04/06 03:42:39;;;;;;;10.88;3.83;;;;;;;5.59;100.00;95485.41;4996943;28;20377;-71
2022/04/06 03:45:05;;;;;;;15.45;3.83;;;;;;;5.64;100.00;95488.16;4995526;28;20095;-71
2022/04/06 03:47:32;;;;;;;12.13;4.15;;;;;;;5.57;100.00;95482.19;4996194;28;20322;-71
2022/04/06 03:49:59;;;;;;;9.95;4.05;;;;;;;5.61;100.00;95474.56;4996814;28;20069;-70
2022/04/06 03:52:25;;;;;;;10.63;3.70;;;;;;;5.62;100.00;95473.53;4994412;28;20037;-70
2022/04/06 03:54:51;;;;;;;12.57;4.72;;;;;;;5.55;100.00;95471.81;4994988;28;20312;-71
2022/04/06 03:57:17;;;;;;;14.98;5.05;;;;;;;5.60;100.00;95479.03;4997826;28;20063;-71
2022/04/06 03:59:42;;;;;;;22.25;4.40;;;;;;;5.57;100.00;95469.72;4998999;28;20095;-70
2022/04/06 04:02:08;;;;;;;11.38;3.97;;;;;;;5.59;100.00;95475.59;4998642;28;20134;-70
2022/04/06 04:04:33;;;;;;;11.48;4.18;;;;;;;5.55;100.00;95465.72;5003099;28;21491;-71
2022/04/06 04:06:59;;;;;;;10.75;4.10;;;;;;;5.52;100.00;95476.78;5001180;28;20041;-70
2022/04/06 04:09:28;;;;;;;12.10;3.58;;;;;;;5.49;100.00;95471.97;5001924;28;20045;-72
2022/04/06 04:11:56;;;;;;;10.90;3.70;;;;;;;5.48;100.00;95473.81;5001449;28;20124;-70
2022/04/06 04:14:23;;;;;;;18.20;4.28;;;;;;;5.49;100.00;95472.78;4996345;28;20111;-72
2022/04/06 04:16:49;;;;;;;12.32;4.40;;;;;;;5.53;100.00;95481.06;5002512;28;20081;-70
2022/04/06 04:19:15;;;;;;;15.07;4.40;;;;;;;5.55;100.00;95474.47;4996097;28;20379;-70
2022/04/06 04:21:42;;;;;;;16.75;4.20;;;;;;;5.52;100.00;95480.25;5000708;28;20034;-71
2022/04/06 04:24:10;;;;;;;10.57;3.78;;;;;;;5.46;100.00;95483.06;4997852;28;20476;-70
2022/04/06 04:26:38;;;;;;;19.42;4.13;;;;;;;5.51;100.00;95483.16;4998165;28;20428;-70
2022/04/06 04:29:04;;;;;;;9.00;4.32;;;;;;;5.52;100.00;95484.75;4996594;28;20463;-71
2022/04/06 04:31:30;;;;;;;13.38;3.63;;;;;;;5.47;100.00;95484.69;4999915;28;20128;-70
2022/04/06 04:33:58;;;;;;;14.60;3.35;;;;;;;5.43;100.00;95486.19;4997991;28;20044;-72
2022/04/06 04:36:24;;;;;;;11.70;3.38;;;;;;;5.46;100.00;95480.41;4998422;28;20127;-71
2022/04/06 04:38:50;;;;;;;12.70;2.78;;;;;;;5.47;100.00;95482.84;4998886;28;20516;-72
2022/04/06 04:41:16;;;;;;;12.98;3.40;;;;;;;5.53;100.00;95489.84;4999606;28;20034;-69
2022/04/06 04:43:41;;;;;;;8.63;3.13;;;;;;;5.51;100.00;95488.44;4997795;28;20043;-70
2022/04/06 04:46:07;;;;;;;16.13;3.78;;;;;;;5.55;100.00;95489.59;4999020;28;20030;-71
2022/04/06 04:48:33;;;;;;;9.45;2.97;;;;;;;5.51;100.00;95486.59;5000452;28;20128;-70
2022/04/06 04:50:58;;;;;;;12.10;3.28;;;;;;;5.54;100.00;95477.38;4999506;28;20416;-71
2022/04/06 04:53:25;;;;;;;7.10;3.08;;;;;;;5.52;100.00;95479.44;4999059;28;20038;-71
2022/04/06 04:55:52;;;;;;;13.82;3.25;;;;;;;5.53;100.00;95489.03;4999508;28;20488;-71
2022/04/06 04:58:18;;;;;;;23.70;3.75;;;;;;;5.50;100.00;95477.03;4997380;28;20034;-70
2022/04/06 05:00:43;;;;;;;14.95;3.60;;;;;;;5.47;100.00;95476.72;4984523;28;20092;-70
2022/04/06 05:03:09;;;;;;;7.63;2.90;;;;;;;5.48;100.00;95467.72;4999092;28;20243;-70
2022/04/06 05:05:37;;;;;;;6.22;2.60;;;;;;;5.47;100.00;95476.72;5000602;28;20064;-70
2022/04/06 05:08:03;;;;;;;11.20;3.20;;;;;;;5.45;100.00;95471.66;5001247;28;20037;-70
2022/04/06 05:10:29;;;;;;;12.70;2.58;;;;;;;5.46;100.00;95470.63;5002764;28;20050;-70
2022/04/06 05:12:54;;;;;;;8.88;2.25;;;;;;;5.45;100.00;95478.81;4997890;28;20037;-71
2022/04/06 05:15:20;;;;;;;8.40;2.42;;;;;;;5.47;100.00;95469.56;4998882;28;20617;-70
2022/04/06 05:17:46;;;;;;;9.07;2.80;;;;;;;5.47;100.00;95466.09;4997469;28;20393;-70
2022/04/06 05:20:12;;;;;;;9.05;2.75;;;;;;;5.48;100.00;95465.06;4998048;28;20458;-70
2022/04/06 05:22:38;;;;;;;10.00;2.05;;;;;;;5.46;100.00;95467.16;4995415;28;20392;-71
2022/04/06 05:25:05;;;;;;;6.78;2.30;;;;;;;5.42;100.00;95466.00;4997364;28;20476;-70
2022/04/06 05:27:31;;;;;;;10.50;2.50;;;;;;;5.38;100.00;95457.75;4994965;28;20067;-70
2022/04/06 05:29:57;;;;;;;10.18;2.55;;;;;;;5.42;100.00;95468.66;4982247;28;20034;-70
2022/04/06 05:32:23;;;;;;;10.88;2.92;;;;;;;5.38;100.00;95463.06;5001953;28;20514;-70
2022/04/06 05:34:48;;;;;;;10.52;2.58;;;;;;;5.36;100.00;95469.63;4998038;28;20042;-70
2022/04/06 05:37:14;;;;;;;12.65;2.67;;;;;;;5.40;100.00;95470.75;5000420;28;20037;-70
2022/04/06 05:39:40;;;;;;;5.63;2.25;;;;;;;5.37;100.00;95473.88;4997499;28;20245;-70
2022/04/06 05:42:05;;;;;;;8.50;2.33;;;;;;;5.35;100.00;95463.50;5000449;28;20068;-71
2022/04/06 05:44:31;;;;;;;10.57;2.55;;;;;;;5.42;100.00;95474.78;4998194;28;20042;-72
2022/04/06 05:46:56;;;;;;;9.88;2.33;;;;;;;5.42;100.00;95472.13;4998192;28;20030;-69
2022/04/06 05:49:22;;;;;;;12.93;3.22;;;;;;;5.31;100.00;95471.16;4999189;28;20050;-70
2022/04/06 05:51:49;;;;;;;12.02;2.15;;;;;;;5.35;100.00;95463.50;4998248;28;20099;-71
2022/04/06 05:54:14;;;;;;;8.15;2.58;;;;;;;5.24;100.00;95469.69;4997042;28;20054;-70
2022/04/06 05:56:40;;;;;;;11.38;3.20;;;;;;;5.32;100.00;95475.41;4996411;28;20137;-71
2022/04/06 05:59:05;;;;;;;9.52;2.40;;;;;;;5.32;100.00;95472.75;4996981;28;20038;-71
2022/04/06 06:01:30;;;;;;;13.43;2.15;;;;;;;5.36;100.00;95480.22;5000154;28;20196;-69
2022/04/06 06:03:56;;;;;;;7.30;2.45;;;;;;;5.36;100.00;95477.56;4999401;28;20041;-70
2022/04/06 06:06:21;;;;;;;4.22;1.48;;;;;;;5.15;100.00;95479.88;4997130;28;20041;-70
2022/04/06 06:08:48;;;;;;;9.10;2.30;;;;;;;5.15;100.00;95482.53;4998510;28;20575;-69
2022/04/06 06:11:14;;;;;;;9.32;2.30;;;;;;;5.14;100.00;95475.63;4998429;28;20045;-70
2022/04/06 06:13:40;;;;;;;7.65;2.63;;;;;;;5.15;100.00;95477.25;4997336;28;20045;-71
2022/04/06 06:16:06;;;;;;;7.07;1.70;;;;;;;5.23;100.00;95476.84;4979443;28;20136;-71
2022/04/06 06:18:31;;;;;;;11.13;2.13;;;;;;;5.24;100.00;95478.47;4998066;28;20038;-70
2022/04/06 06:20:59;;;;;;;4.70;1.73;;;;;;;5.23;100.00;95478.69;5000735;28;20129;-70
2022/04/06 06:23:24;;;;;;;4.90;1.08;;;;;;;5.23;100.00;95471.53;4996719;28;20042;-70
2022/04/06 06:25:50;;;;;;;8.20;2.70;;;;;;;5.26;100.00;95468.41;4997366;28;20036;-70
2022/04/06 06:28:15;;;;;;;9.95;1.95;;;;;;;5.19;100.00;95472.25;4995779;28;20077;-71
2022/04/06 06:30:41;;;;;;;7.43;1.70;;;;;;;5.31;100.00;95465.03;4997640;28;20164;-69
2022/04/06 06:33:06;;;;;;;5.97;1.85;;;;;;;5.38;100.00;95478.97;4997884;28;20048;-71
2022/04/06 06:35:31;;;;;;;8.77;1.65;;;;;;;5.37;100.00;95466.75;4997592;28;20463;-70
2022/04/06 06:37:57;;;;;;;4.55;1.50;;;;;;;5.42;100.00;95477.44;5000346;28;20548;-70
2022/04/06 06:40:25;;;;;;;5.53;1.85;;;;;;;5.43;100.00;95478.22;4994530;28;20068;-70
2022/04/06 06:42:51;;;;;;;12.15;1.90;;;;;;;5.47;100.00;95469.56;4996635;28;20507;-70
2022/04/06 06:45:17;;;;;;;7.65;1.75;;;;;;;5.43;100.00;95472.91;4990320;28;20132;-70
2022/04/06 06:47:43;;;;;;;8.25;1.85;;;;;;;5.50;100.00;95469.06;5001007;28;20045;-70
2022/04/06 06:50:11;;;;;;;7.55;1.92;;;;;;;5.56;100.00;95472.63;4998658;28;20041;-70
2022/04/06 06:52:36;;;;;;;9.77;2.08;;;;;;;5.57;100.00;95459.09;4998694;28;20566;-71
2022/04/06 06:55:03;;;;;;;13.05;2.05;;;;;;;5.57;100.00;95461.75;4982049;28;20044;-70
2022/04/06 06:57:29;;;;;;;5.10;1.88;;;;;;;5.61;100.00;95450.69;5000528;28;20034;-70
2022/04/06 06:59:54;;;;;;;7.90;1.83;;;;;;;5.63;100.00;95457.34;4984455;28;20026;-70
2022/04/06 07:02:20;;;;;;;3.97;1.45;;;;;;;5.65;100.00;95462.41;4998000;28;20616;-70
2022/04/06 07:04:46;;;;;;;6.22;1.50;;;;;;;5.67;100.00;95455.81;5001802;28;20034;-71
2022/04/06 07:07:12;;;;;;;9.45;2.22;;;;;;;5.63;100.00;95460.00;4998461;28;20346;-69
2022/04/06 07:09:37;;;;;;;8.07;2.30;;;;;;;5.65;100.00;95459.75;4998011;28;20050;-71
2022/04/06 07:12:06;;;;;;;10.60;2.17;;;;;;;5.60;100.00;95457.81;5000059;28;20342;-70
2022/04/06 07:14:32;;;;;;;7.55;2.05;;;;;;;5.61;100.00;95454.13;4982008;28;20034;-69
2022/04/06 07:16:58;;;;;;;6.55;1.75;;;;;;;5.59;100.00;95449.03;4996225;28;20042;-69
2022/04/06 07:19:24;;;;;;;13.57;3.50;;;;;;;5.66;100.00;95456.84;4997374;28;20435;-71
2022/04/06 07:21:50;;;;;;;4.97;1.90;;;;;;;5.71;100.00;95450.84;4999486;28;20050;-70
2022/04/06 07:24:16;;;;;;;11.07;1.75;;;;;;;5.78;100.00;95440.84;4998796;28;20433;-70
2022/04/06 07:26:41;;;;;;;9.02;2.60;;;;;;;5.82;100.00;95436.66;5000764;28;20048;-70
2022/04/06 07:29:11;;;;;;;9.10;2.50;;;;;;;5.80;100.00;95439.56;4995476;28;20061;-71
2022/04/06 07:31:38;;;;;;;10.00;2.40;;;;;;;5.81;100.00;95432.41;4995620;28;20122;-71
2022/04/06 07:34:04;;;;;;;9.77;2.63;;;;;;;6.09;100.00;95442.13;5001753;28;20038;-71
2022/04/06 07:36:30;;;;;;;3.38;1.27;;;;;;;6.07;100.00;95433.59;5001556;28;20044;-71
2022/04/06 07:38:55;;;;;;;6.13;1.60;;;;;;;6.14;100.00;95431.56;4999144;28;20084;-70
2022/04/06 07:41:24;;;;;;;12.45;2.20;;;;;;;6.07;100.00;95438.91;5001870;28;21590;-70
2022/04/06 07:43:50;;;;;;;6.45;1.60;;;;;;;6.06;100.00;95431.97;5002832;28;20042;-70
2022/04/06 07:46:15;;;;;;;18.52;1.75;;;;;;;6.18;100.00;95438.00;5002261;28;20042;-71
2022/04/06 07:48:41;;;;;;;8.65;1.50;;;;;;;6.11;100.00;95437.38;4978770;28;20053;-72
2022/04/06 07:51:07;;;;;;;7.43;1.63;;;;;;;6.09;100.00;95439.47;4999065;28;20130;-70
2022/04/06 07:53:32;;;;;;;8.23;1.70;;;;;;;6.14;100.00;95436.88;5001918;28;20564;-70
2022/04/06 07:55:58;;;;;;;9.05;2.17;;;;;;;6.21;100.00;95442.00;4999598;28;20045;-72
2022/04/06 07:58:24;;;;;;;5.78;1.40;;;;;;;6.24;100.00;95445.00;4998584;28;20061;-70
2022/04/06 08:00:49;;;;;;;4.18;1.52;;;;;;;6.24;100.00;95434.38;5001569;28;20042;-71
2022/04/06 08:03:15;;;;;;;4.70;1.50;;;;;;;6.30;100.00;95430.75;5003833;28;20489;-70
2022/04/06 08:05:40;;;;;;;6.28;1.65;;;;;;;6.20;100.00;95430.59;5000773;28;20045;-71
2022/04/06 08:08:07;;;;;;;6.38;1.52;;;;;;;6.31;100.00;95435.00;5003435;28;20431;-71
2022/04/06 08:10:32;;;;;;;8.15;1.60;;;;;;;6.43;100.00;95433.00;4998934;28;20038;-70
2022/04/06 08:12:58;;;;;;;7.75;1.55;;;;;;;6.58;100.00;95421.75;5000085;28;20042;-71
2022/04/06 08:15:24;;;;;;;12.02;1.95;;;;;;;6.83;100.00;95421.25;5000058;28;20048;-70
2022/04/06 08:17:49;;;;;;;7.38;1.92;;;;;;;6.95;100.00;95421.91;5003117;28;20053;-69
2022/04/06 08:20:16;;;;;;;9.35;1.50;;;;;;;6.81;100.00;95418.03;4999134;28;21525;-69
2022/04/06 08:22:44;;;;;;;5.53;1.50;;;;;;;7.07;100.00;95424.41;5000626;28;20061;-74
2022/04/06 08:25:10;;;;;;;11.93;1.90;;;;;;;7.30;100.00;95417.97;4997786;28;20033;-69
2022/04/06 08:27:39;;;;;;;6.45;1.65;;;;;;;7.42;100.00;95413.31;5001147;28;20139;-71
2022/04/06 08:30:06;;;;;;;5.88;1.40;;;;;;;7.71;100.00;95413.81;4992661;28;20609;-70
2022/04/06 08:32:32;;;;;;;5.00;1.35;;;;;;;8.03;100.00;95411.09;4996387;28;20050;-70
2022/04/06 08:34:58;;;;;;;9.77;1.48;;;;;;;8.29;100.00;95413.88;4993413;28;20457;-70
2022/04/06 08:37:25;;;;;;;5.57;1.83;;;;;;;8.05;100.00;95406.28;4993909;28;20953;-70
2022/04/06 08:39:50;;;;;;;8.85;1.20;;;;;;;8.19;100.00;95406.66;4995459;28;20112;-70
2022/04/06 08:42:16;;;;;;;7.93;1.77;;;;;;;8.44;100.00;95407.84;4996055;28;20046;-70
2022/04/06 08:44:43;;;;;;;4.38;1.73;;;;;;;8.37;100.00;95403.56;4998296;28;20044;-70
2022/04/06 08:47:10;;;;;;;6.20;1.95;;;;;;;8.30;100.00;95408.28;4995895;28;20107;-70
2022/04/06 08:49:36;;;;;;;5.55;0.93;;;;;;;8.23;100.00;95406.91;4968145;28;21972;-70
2022/04/06 08:52:03;;;;;;;6.97;1.60;;;;;;;8.23;100.00;95394.38;4991943;28;20034;-70
2022/04/06 08:54:30;;;;;;;4.82;1.60;;;;;;;8.17;100.00;95399.94;4993535;28;20036;-70
2022/04/06 08:56:55;;;;;;;8.88;1.88;;;;;;;8.28;100.00;95404.28;4994691;28;20124;-70
2022/04/06 08:59:22;;;;;;;6.78;1.52;;;;;;;8.34;100.00;95405.91;4992346;28;22901;-70
2022/04/06 09:01:48;;;;;;;6.53;1.60;;;;;;;8.43;100.00;95399.06;4986791;28;20213;-71
2022/04/06 09:04:13;;;;;;;9.05;1.63;;;;;;;8.07;100.00;95396.16;4991214;28;20508;-70
2022/04/06 09:06:44;;;;;;;7.28;1.90;;;;;;;8.14;100.00;95401.28;4991564;28;20524;-69
2022/04/06 09:09:10;;;;;;;5.85;1.27;;;;;;;8.01;100.00;95399.06;4994630;28;20065;-70
2022/04/06 09:11:43;;;;;;;11.48;2.95;;;;;;;8.12;100.00;95389.28;4995731;28;20033;-70
2022/04/06 09:14:10;;;;;;;8.52;2.50;;;;;;;8.24;100.00;95395.19;4994987;28;20045;-69
2022/04/06 09:16:35;;;;;;;13.27;2.70;;;;;;;8.71;100.00;95394.34;4994425;28;20128;-70
2022/04/06 09:19:12;;;;;;;9.82;1.95;;;;;;;8.97;100.00;95390.69;4991668;28;20060;-69
2022/04/06 09:21:42;;;;;;;8.43;1.50;;;;;;;9.06;100.00;95393.66;4993576;28;20072;-70
2022/04/06 09:24:19;;;;;;;7.78;2.00;;;;;;;8.25;100.00;95394.94;4991533;28;20042;-70
2022/04/06 09:27:01;;;;;;;9.45;2.50;;;;;;;8.22;100.00;95397.31;4997241;28;20030;-69
2022/04/06 09:29:26;;;;;;;9.27;2.10;;;;;;;8.29;100.00;95406.69;4994925;28;20050;-70
2022/04/06 09:31:53;;;;;;;7.43;1.90;;;;;;;8.04;100.00;95394.03;4993504;28;20102;-71
2022/04/06 09:34:23;;;;;;;9.02;2.20;;;;;;;8.09;100.00;95396.75;4993239;28;20076;-70
2022/04/06 09:36:56;;;;;;;10.43;2.30;;;;;;;7.89;100.00;95393.13;4996999;28;20095;-70
2022/04/06 09:39:45;;;;;;;6.53;2.08;;;;;;;8.23;100.00;95388.25;4994277;28;20042;-71
2022/04/06 09:42:21;;;;;;;11.45;2.45;;;;;;;7.83;100.00;95392.28;4992440;28;20050;-70
2022/04/06 09:47:53;;;;;;;10.40;3.03;;;;;;;7.74;100.00;95391.97;4991417;28;20476;-71
2022/04/06 09:50:24;;;;;;;10.63;2.25;;;;;;;8.00;100.00;95382.28;4971053;28;20053;-71
2022/04/06 09:52:51;;;;;;;8.77;2.63;;;;;;;8.28;100.00;95388.28;4992859;28;20041;-70
2022/04/06 09:55:18;;;;;;;9.90;2.00;;;;;;;8.53;100.00;95388.41;4976714;28;20040;-70
2022/04/06 09:57:55;;;;;;;7.72;2.00;;;;;;;8.50;100.00;95383.63;4991939;28;20065;-70
2022/04/06 10:00:24;;;;;;;10.15;2.53;;;;;;;8.45;100.00;95383.59;4989569;28;20649;-70
2022/04/06 10:03:06;;;;;;;2.10;1.10;;;;;;;8.31;100.00;95374.44;4993394;28;20048;-71
2022/04/06 10:05:35;;;;;;;9.18;2.20;;;;;;;8.43;100.00;95385.72;4998199;28;20077;-70
2022/04/06 10:08:02;;;;;;;9.95;2.08;;;;;;;8.45;100.00;95382.78;4998666;28;20178;-71
2022/04/06 10:10:28;;;;;;;16.77;6.70;;;;;;;8.28;100.00;95389.09;4995976;28;20049;-70
2022/04/06 10:12:56;;;;;;;6.28;2.17;;;;;;;7.86;100.00;95385.66;4991724;28;20188;-70
2022/04/06 10:15:24;;;;;;;7.10;2.33;;;;;;;8.18;100.00;95372.25;4994367;28;20536;-70
2022/04/06 10:17:53;;;;;;;7.90;2.17;;;;;;;8.54;100.00;95375.91;4994185;28;20445;-70
2022/04/06 10:20:45;;;;;;;12.70;2.70;;;;;;;8.69;100.00;95375.16;4991198;28;20478;-70
2022/04/06 10:23:19;;;;;;;9.25;2.40;;;;;;;8.49;100.00;95375.91;4996055;28;20041;-70
2022/04/06 10:25:44;;;;;;;12.00;2.80;;;;;;;8.65;100.00;95367.69;4994361;28;20049;-71
2022/04/06 10:28:12;;;;;;;12.77;3.10;;;;;;;8.70;100.00;95366.06;4995476;28;20065;-70
2022/04/06 10:30:38;;;;;;;7.25;1.73;;;;;;;8.88;100.00;95371.75;4995751;28;20421;-71
2022/04/06 10:33:19;;;;;;;8.33;2.13;;;;;;;8.76;100.00;95362.38;4305202;28;10000334;-70
2022/04/06 10:35:45;;;;;;;12.10;3.00;;;;;;;8.58;100.00;95372.44;4997623;28;20292;-71
2022/04/06 10:38:17;;;;;;;6.00;2.15;;;;;;;8.58;100.00;95385.78;4980183;28;20046;-70
2022/04/06 10:40:42;;;;;;;8.77;2.30;;;;;;;8.51;100.00;95376.44;4994459;28;20072;-70
2022/04/06 10:43:38;;;;;;;6.60;2.10;;;;;;;8.68;100.00;95366.34;4994064;28;20630;-70
2022/04/06 10:46:14;;;;;;;7.30;1.70;;;;;;;8.71;100.00;95370.34;4988679;28;20128;-72
2022/04/06 10:49:09;;;;;;;8.52;1.65;;;;;;;8.84;100.00;95362.66;4998627;28;20497;-71
2022/04/06 10:51:37;;;;;;;8.02;1.90;;;;;;;8.94;100.00;95357.31;4996966;28;20041;-70
2022/04/06 10:54:12;;;;;;;10.82;2.00;;;;;;;8.78;100.00;95345.03;4995935;28;20380;-71
2022/04/06 10:56:49;;;;;;;7.20;2.17;;;;;;;8.73;100.00;95352.22;4993880;28;20065;-71
2022/04/06 10:59:16;;;;;;;8.38;2.80;;;;;;;8.86;100.00;95346.38;4994645;28;20769;-70
2022/04/06 11:01:45;;;;;;;10.45;2.38;;;;;;;8.74;100.00;95348.50;4994168;28;20042;-70
2022/04/06 11:04:24;;;;;;;8.65;2.85;;;;;;;8.74;100.00;95345.81;4995834;28;20361;-70
2022/04/06 11:06:59;;;;;;;5.13;1.85;;;;;;;8.62;100.00;95336.19;4999002;28;20095;-71
2022/04/06 11:13:00;;;;;;;10.35;2.03;;;;;;;9.11;100.00;95343.75;4920421;29;20075;-71
2022/04/06 11:15:40;;;;;;;8.73;2.03;;;;;;;9.13;100.00;95336.28;4919189;29;20043;-70
2022/04/06 11:18:44;;;;;;;5.45;1.63;;;;;;;9.33;100.00;95332.00;4971136;28;20054;-70
2022/04/06 11:21:12;;;;;;;5.13;1.80;;;;;;;9.47;100.00;95325.06;4997048;28;20119;-71
2022/04/06 11:23:37;;;;;;;7.95;1.77;;;;;;;9.80;100.00;95323.66;5001952;28;20046;-70
2022/04/06 11:26:02;;;;;;;9.27;1.90;;;;;;;9.89;100.00;95326.59;4998966;28;20087;-71
2022/04/06 11:28:28;;;;;;;5.43;1.75;;;;;;;9.76;100.00;95336.78;5000393;28;20438;-71
2022/04/06 11:30:54;;;;;;;3.70;1.33;;;;;;;9.51;100.00;95320.78;4998740;28;20168;-71
2022/04/06 11:33:19;;;;;;;4.32;1.45;;;;;;;9.39;100.00;95317.59;4997515;28;20616;-71
2022/04/06 11:35:45;;;;;;;11.25;1.73;;;;;;;9.39;100.00;95309.56;4998301;28;20038;-70
2022/04/06 11:38:10;;;;;;;6.80;1.70;;;;;;;9.54;100.00;95314.09;4999884;28;20057;-71